createdAt,value
2017-06-24T00:00:19.282Z,0
2017-06-24T00:01:30.273Z,0
2017-06-24T00:02:41.265Z,0
2017-06-24T00:03:52.654Z,0
2017-06-24T00:05:03.688Z,0
2017-06-24T00:06:15.078Z,0
2017-06-24T00:07:26.071Z,0
2017-06-24T00:08:37.263Z,0
2017-06-24T00:09:48.248Z,0
2017-06-24T00:10:59.240Z,0
2017-06-24T00:12:10.236Z,0
2017-06-24T00:13:21.224Z,0
2017-06-24T00:14:32.410Z,0
2017-06-24T00:15:43.440Z,0
2017-06-24T00:16:54.433Z,0
2017-06-24T00:18:05.427Z,0
2017-06-24T00:19:16.418Z,0
2017-06-24T00:20:27.412Z,0
2017-06-24T00:21:39.055Z,0
2017-06-24T00:22:50.244Z,0
2017-06-24T00:24:01.232Z,0
2017-06-24T00:25:12.224Z,0
2017-06-24T00:26:23.215Z,0
2017-06-24T00:27:34.247Z,0
2017-06-24T00:28:45.237Z,0
2017-06-24T00:29:56.227Z,0
2017-06-24T00:31:07.217Z,0
2017-06-24T00:32:18.406Z,0
2017-06-24T00:33:29.444Z,0
2017-06-24T00:34:40.430Z,0
2017-06-24T00:35:51.414Z,0
2017-06-24T00:37:02.403Z,0
2017-06-24T00:38:13.411Z,0
2017-06-24T00:39:24.451Z,0
2017-06-24T00:40:35.646Z,0
2017-06-24T00:41:46.632Z,0
2017-06-24T00:42:57.626Z,0
2017-06-24T00:44:08.815Z,0
2017-06-24T00:45:19.884Z,0
2017-06-24T00:46:30.871Z,0
2017-06-24T00:47:41.867Z,0
2017-06-24T00:48:52.857Z,0
2017-06-24T00:50:03.843Z,0
2017-06-24T00:51:14.881Z,0
2017-06-24T00:52:26.075Z,0
2017-06-24T00:53:37.071Z,0
2017-06-24T00:54:48.258Z,0
2017-06-24T00:55:59.244Z,0
2017-06-24T00:57:10.280Z,0
2017-06-24T00:58:21.266Z,0
2017-06-24T00:59:32.253Z,0
2017-06-24T01:00:43.241Z,0
2017-06-24T01:01:54.432Z,0
2017-06-24T01:03:05.480Z,0
2017-06-24T01:04:16.471Z,0
2017-06-24T01:05:27.465Z,0
2017-06-24T01:06:38.448Z,0
2017-06-24T01:07:49.643Z,0
2017-06-24T01:09:00.686Z,0
2017-06-24T01:10:11.675Z,0
2017-06-24T01:11:22.675Z,0
2017-06-24T01:12:33.693Z,0
2017-06-24T01:13:44.696Z,0
2017-06-24T01:14:55.942Z,0
2017-06-24T01:16:06.937Z,0
2017-06-24T01:17:17.927Z,0
2017-06-24T01:18:28.924Z,0
2017-06-24T01:19:39.915Z,0
2017-06-24T01:20:50.952Z,0
2017-06-24T01:22:01.944Z,0
2017-06-24T01:23:12.933Z,0
2017-06-24T01:24:24.135Z,0
2017-06-24T01:25:35.177Z,0
2017-06-24T01:26:46.175Z,0
2017-06-24T01:27:57.165Z,0
2017-06-24T01:29:08.154Z,0
2017-06-24T01:30:19.149Z,0
2017-06-24T01:31:30.185Z,0
2017-06-24T01:32:41.174Z,0
2017-06-24T01:33:52.166Z,0
2017-06-24T01:35:03.146Z,0
2017-06-24T01:36:14.139Z,0
2017-06-24T01:37:25.185Z,0
2017-06-24T01:38:36.170Z,0
2017-06-24T01:39:47.164Z,0
2017-06-24T01:40:58.156Z,0
2017-06-24T01:42:09.144Z,0
2017-06-24T01:43:20.189Z,0
2017-06-24T01:44:31.179Z,0
2017-06-24T01:45:42.163Z,0
2017-06-24T01:46:53.161Z,0
2017-06-24T01:48:04.343Z,0
2017-06-24T01:49:15.379Z,0
2017-06-24T01:50:26.373Z,0
2017-06-24T01:51:37.358Z,0
2017-06-24T01:52:48.350Z,0
2017-06-24T01:53:59.380Z,0
2017-06-24T01:55:10.622Z,0
2017-06-24T01:56:21.615Z,0
2017-06-24T01:57:32.645Z,0
2017-06-24T01:58:43.639Z,0
2017-06-24T01:59:54.624Z,0
2017-06-24T02:01:05.659Z,0
2017-06-24T02:02:16.642Z,0
2017-06-24T02:03:27.634Z,0
2017-06-24T02:04:38.639Z,0
2017-06-24T02:05:49.635Z,0
2017-06-24T02:07:00.903Z,0
2017-06-24T02:08:11.898Z,0
2017-06-24T02:09:22.890Z,0
2017-06-24T02:10:33.876Z,0
2017-06-24T02:11:44.861Z,0
2017-06-24T02:12:55.900Z,0
2017-06-24T02:14:06.882Z,0
2017-06-24T02:15:17.870Z,0
2017-06-24T02:16:28.861Z,0
2017-06-24T02:17:40.047Z,0
2017-06-24T02:18:51.086Z,0
2017-06-24T02:20:02.079Z,0
2017-06-24T02:21:13.065Z,0
2017-06-24T02:22:24.053Z,0
2017-06-24T02:23:35.042Z,0
2017-06-24T02:24:46.109Z,0
2017-06-24T02:25:57.095Z,0
2017-06-24T02:27:08.089Z,0
2017-06-24T02:28:19.070Z,0
2017-06-24T02:29:30.059Z,0
2017-06-24T02:30:41.048Z,0
2017-06-24T02:31:52.030Z,0
2017-06-24T02:33:03.019Z,0
2017-06-24T02:34:14.018Z,0
2017-06-24T02:35:25.470Z,4
2017-06-24T02:36:36.658Z,4
2017-06-24T02:37:47.661Z,4
2017-06-24T02:38:58.645Z,4
2017-06-24T02:40:09.640Z,4
2017-06-24T02:41:20.890Z,4
2017-06-24T02:42:31.872Z,4
2017-06-24T02:43:42.860Z,4
2017-06-24T02:44:53.851Z,8
2017-06-24T02:46:04.837Z,8
2017-06-24T02:47:16.081Z,8
2017-06-24T02:48:27.065Z,12
2017-06-24T02:49:38.053Z,12
2017-06-24T02:50:49.442Z,12
2017-06-24T02:52:00.419Z,16
2017-06-24T02:53:12.057Z,16
2017-06-24T02:54:23.253Z,20
2017-06-24T02:55:34.245Z,20
2017-06-24T02:56:45.436Z,28
2017-06-24T02:57:56.428Z,28
2017-06-24T02:59:07.464Z,32
2017-06-24T03:00:18.454Z,32
2017-06-24T03:01:29.442Z,36
2017-06-24T03:02:40.428Z,40
2017-06-24T03:03:51.619Z,44
2017-06-24T03:05:02.658Z,48
2017-06-24T03:06:13.656Z,52
2017-06-24T03:07:24.848Z,56
2017-06-24T03:08:35.838Z,56
2017-06-24T03:09:46.824Z,64
2017-06-24T03:10:57.810Z,68
2017-06-24T03:12:09.004Z,72
2017-06-24T03:13:19.994Z,76
2017-06-24T03:14:30.982Z,76
2017-06-24T03:15:42.037Z,84
2017-06-24T03:16:53.027Z,84
2017-06-24T03:18:04.011Z,92
2017-06-24T03:19:15.194Z,100
2017-06-24T03:20:26.380Z,108
2017-06-24T03:21:37.617Z,116
2017-06-24T03:22:48.604Z,120
2017-06-24T03:23:59.593Z,128
2017-06-24T03:25:10.586Z,132
2017-06-24T03:26:21.773Z,144
2017-06-24T03:27:32.817Z,156
2017-06-24T03:28:43.828Z,164
2017-06-24T03:29:55.020Z,176
2017-06-24T03:31:06.012Z,200
2017-06-24T03:32:16.997Z,220
2017-06-24T03:33:28.032Z,232
2017-06-24T03:34:39.045Z,240
2017-06-24T03:35:50.049Z,244
2017-06-24T03:37:01.228Z,252
2017-06-24T03:38:12.208Z,264
2017-06-24T03:39:23.246Z,280
2017-06-24T03:40:34.235Z,292
2017-06-24T03:41:45.224Z,300
2017-06-24T03:42:56.228Z,312
2017-06-24T03:44:07.208Z,328
2017-06-24T03:45:18.456Z,352
2017-06-24T03:46:29.647Z,384
2017-06-24T03:47:40.636Z,412
2017-06-24T03:48:51.821Z,436
2017-06-24T03:50:02.806Z,456
2017-06-24T03:51:13.867Z,484
2017-06-24T03:52:25.064Z,508
2017-06-24T03:53:36.058Z,528
2017-06-24T03:54:47.048Z,544
2017-06-24T03:55:58.033Z,556
2017-06-24T03:57:09.272Z,572
2017-06-24T03:58:20.464Z,588
2017-06-24T03:59:31.653Z,596
2017-06-24T04:00:42.644Z,596
2017-06-24T04:01:53.621Z,596
2017-06-24T04:03:04.857Z,596
2017-06-24T04:04:15.842Z,596
2017-06-24T04:05:26.833Z,592
2017-06-24T04:06:38.022Z,616
2017-06-24T04:07:49.008Z,632
2017-06-24T04:09:00.247Z,628
2017-06-24T04:10:11.439Z,600
2017-06-24T04:11:22.845Z,588
2017-06-24T04:12:34.036Z,592
2017-06-24T04:13:45.221Z,604
2017-06-24T04:14:56.463Z,624
2017-06-24T04:16:07.481Z,640
2017-06-24T04:17:18.671Z,664
2017-06-24T04:18:29.657Z,668
2017-06-24T04:19:40.645Z,668
2017-06-24T04:20:51.832Z,672
2017-06-24T04:22:02.823Z,704
2017-06-24T04:23:14.063Z,732
2017-06-24T04:24:25.051Z,752
2017-06-24T04:25:36.288Z,772
2017-06-24T04:26:47.282Z,832
2017-06-24T04:27:58.273Z,976
2017-06-24T04:29:09.261Z,1068
2017-06-24T04:30:20.241Z,1188
2017-06-24T04:31:31.279Z,1364
2017-06-24T04:32:42.289Z,1460
2017-06-24T04:33:53.283Z,1480
2017-06-24T04:35:04.275Z,1244
2017-06-24T04:36:15.264Z,1120
2017-06-24T04:37:26.301Z,1068
2017-06-24T04:38:37.483Z,1104
2017-06-24T04:39:48.875Z,1384
2017-06-24T04:40:59.860Z,1496
2017-06-24T04:42:10.851Z,1412
2017-06-24T04:43:22.092Z,1380
2017-06-24T04:44:33.076Z,1428
2017-06-24T04:45:44.069Z,1460
2017-06-24T04:46:55.260Z,1452
2017-06-24T04:48:06.449Z,1464
2017-06-24T04:49:17.480Z,1656
2017-06-24T04:50:28.871Z,1688
2017-06-24T04:51:39.862Z,1880
2017-06-24T04:52:50.844Z,1952
2017-06-24T04:54:02.038Z,2184
2017-06-24T04:55:13.071Z,2344
2017-06-24T04:56:24.053Z,2292
2017-06-24T04:57:35.080Z,2264
2017-06-24T04:58:46.266Z,2156
2017-06-24T04:59:57.446Z,2192
2017-06-24T05:01:08.475Z,2248
2017-06-24T05:02:19.875Z,2192
2017-06-24T05:03:30.859Z,1872
2017-06-24T05:04:41.841Z,1544
2017-06-24T05:05:52.828Z,1472
2017-06-24T05:07:03.870Z,1564
2017-06-24T05:08:14.871Z,1476
2017-06-24T05:09:25.860Z,1436
2017-06-24T05:10:36.842Z,1572
2017-06-24T05:11:47.843Z,1616
2017-06-24T05:12:58.885Z,1520
2017-06-24T05:14:09.870Z,1644
2017-06-24T05:15:20.861Z,1736
2017-06-24T05:16:31.851Z,1716
2017-06-24T05:17:42.852Z,1628
2017-06-24T05:18:53.890Z,1572
2017-06-24T05:20:04.871Z,1636
2017-06-24T05:21:15.857Z,1728
2017-06-24T05:22:27.045Z,1672
2017-06-24T05:23:38.036Z,1796
2017-06-24T05:24:49.069Z,1880
2017-06-24T05:26:00.057Z,1920
2017-06-24T05:27:11.052Z,1956
2017-06-24T05:28:22.036Z,2124
2017-06-24T05:29:33.032Z,2256
2017-06-24T05:30:44.015Z,2284
2017-06-24T05:31:55.005Z,2240
2017-06-24T05:33:05.994Z,2224
2017-06-24T05:34:17.179Z,2540
2017-06-24T05:35:28.213Z,3016
2017-06-24T05:36:39.204Z,3336
2017-06-24T05:37:50.198Z,3772
2017-06-24T05:39:01.180Z,3868
2017-06-24T05:40:12.170Z,3924
2017-06-24T05:41:23.404Z,4620
2017-06-24T05:42:34.393Z,5052
2017-06-24T05:43:45.390Z,4784
2017-06-24T05:44:56.378Z,4440
2017-06-24T05:46:07.369Z,4976
2017-06-24T05:47:18.432Z,4832
2017-06-24T05:48:29.417Z,4828
2017-06-24T05:49:40.401Z,4424
2017-06-24T05:50:51.393Z,4004
2017-06-24T05:52:02.587Z,3984
2017-06-24T05:53:13.620Z,3800
2017-06-24T05:54:24.606Z,3636
2017-06-24T05:55:35.608Z,3264
2017-06-24T05:56:46.603Z,2588
2017-06-24T05:57:57.590Z,2064
2017-06-24T05:59:08.836Z,2148
2017-06-24T06:00:19.816Z,2468
2017-06-24T06:01:30.799Z,2660
2017-06-24T06:02:41.989Z,2840
2017-06-24T06:03:53.001Z,2848
2017-06-24T06:05:04.040Z,2700
2017-06-24T06:06:15.032Z,2744
2017-06-24T06:07:26.015Z,2640
2017-06-24T06:08:36.995Z,2756
2017-06-24T06:09:47.981Z,2836
2017-06-24T06:10:58.966Z,2692
2017-06-24T06:12:09.962Z,2788
2017-06-24T06:13:20.959Z,2612
2017-06-24T06:14:31.950Z,2376
2017-06-24T06:15:42.982Z,2152
2017-06-24T06:16:53.973Z,2040
2017-06-24T06:18:04.964Z,1936
2017-06-24T06:19:15.953Z,1900
2017-06-24T06:20:26.939Z,1888
2017-06-24T06:21:37.973Z,2044
2017-06-24T06:22:48.962Z,2184
2017-06-24T06:23:59.958Z,2300
2017-06-24T06:25:10.945Z,2092
2017-06-24T06:26:21.938Z,1680
2017-06-24T06:27:33.184Z,1740
2017-06-24T06:28:44.173Z,1912
2017-06-24T06:29:55.157Z,1992
2017-06-24T06:31:06.142Z,1932
2017-06-24T06:32:17.130Z,2004
2017-06-24T06:33:28.173Z,2040
2017-06-24T06:34:39.160Z,2152
2017-06-24T06:35:50.150Z,2220
2017-06-24T06:37:01.127Z,2196
2017-06-24T06:38:12.120Z,2076
2017-06-24T06:39:23.158Z,1928
2017-06-24T06:40:34.141Z,2184
2017-06-24T06:41:45.132Z,2372
2017-06-24T06:42:56.128Z,2532
2017-06-24T06:44:07.114Z,2964
2017-06-24T06:45:18.353Z,3176
2017-06-24T06:46:29.547Z,3028
2017-06-24T06:47:40.543Z,3012
2017-06-24T06:48:51.553Z,3220
2017-06-24T06:50:02.549Z,3252
2017-06-24T06:51:13.736Z,3236
2017-06-24T06:52:24.731Z,3068
2017-06-24T06:53:35.720Z,3176
2017-06-24T06:54:46.711Z,3800
2017-06-24T06:55:57.747Z,5048
2017-06-24T06:57:08.942Z,7124
2017-06-24T06:58:20.134Z,6068
2017-06-24T06:59:31.325Z,6028
2017-06-24T07:00:42.317Z,6748
2017-06-24T07:01:53.350Z,7080
2017-06-24T07:03:04.345Z,13084
2017-06-24T07:04:15.538Z,8324
2017-06-24T07:05:26.526Z,6428
2017-06-24T07:06:38.184Z,5620
2017-06-24T07:07:49.219Z,5720
2017-06-24T07:09:00.213Z,5648
2017-06-24T07:10:11.409Z,5564
2017-06-24T07:11:22.411Z,5380
2017-06-24T07:12:33.809Z,4820
2017-06-24T07:13:44.852Z,5056
2017-06-24T07:14:56.037Z,5120
2017-06-24T07:16:07.026Z,4736
2017-06-24T07:17:18.217Z,4428
2017-06-24T07:18:29.205Z,4480
2017-06-24T07:19:40.249Z,4636
2017-06-24T07:20:51.247Z,4952
2017-06-24T07:22:02.227Z,5312
2017-06-24T07:23:13.427Z,5324
2017-06-24T07:24:24.414Z,5348
2017-06-24T07:25:35.451Z,5244
2017-06-24T07:26:46.637Z,4768
2017-06-24T07:27:57.623Z,4024
2017-06-24T07:29:08.617Z,4108
2017-06-24T07:30:19.606Z,4248
2017-06-24T07:31:30.643Z,4556
2017-06-24T07:32:41.637Z,5724
2017-06-24T07:33:52.625Z,5188
2017-06-24T07:35:03.615Z,4308
2017-06-24T07:36:14.608Z,4520
2017-06-24T07:37:25.649Z,4356
2017-06-24T07:38:36.637Z,4556
2017-06-24T07:39:47.623Z,4460
2017-06-24T07:40:58.653Z,4216
2017-06-24T07:42:09.643Z,4020
2017-06-24T07:43:20.686Z,4500
2017-06-24T07:44:31.685Z,6344
2017-06-24T07:45:42.859Z,6644
2017-06-24T07:46:53.849Z,6212
2017-06-24T07:48:04.844Z,9840
2017-06-24T07:49:15.885Z,12248
2017-06-24T07:50:27.077Z,10584
2017-06-24T07:51:38.061Z,9680
2017-06-24T07:52:49.054Z,8424
2017-06-24T07:54:00.041Z,8052
2017-06-24T07:55:11.087Z,8036
2017-06-24T07:56:22.079Z,7788
2017-06-24T07:57:33.072Z,7504
2017-06-24T07:58:44.265Z,7312
2017-06-24T07:59:55.246Z,7736
2017-06-24T08:01:06.311Z,8476
2017-06-24T08:02:17.308Z,8328
2017-06-24T08:03:28.304Z,7552
2017-06-24T08:04:39.301Z,6772
2017-06-24T08:05:50.297Z,6932
2017-06-24T08:07:01.340Z,7388
2017-06-24T08:08:12.334Z,6768
2017-06-24T08:09:23.531Z,5864
2017-06-24T08:10:34.517Z,5244
2017-06-24T08:11:45.508Z,4536
2017-06-24T08:12:56.551Z,4220
2017-06-24T08:14:07.740Z,4180
2017-06-24T08:15:18.739Z,4440
2017-06-24T08:16:29.724Z,4892
2017-06-24T08:17:40.723Z,5364
2017-06-24T08:18:51.964Z,5960
2017-06-24T08:20:03.155Z,6548
2017-06-24T08:21:14.154Z,6900
2017-06-24T08:22:25.150Z,7788
2017-06-24T08:23:36.142Z,8176
2017-06-24T08:24:47.388Z,8472
2017-06-24T08:25:58.379Z,8948
2017-06-24T08:27:09.378Z,8544
2017-06-24T08:28:20.370Z,7960
2017-06-24T08:29:31.364Z,8132
2017-06-24T08:30:42.364Z,8088
2017-06-24T08:31:53.347Z,8092
2017-06-24T08:33:04.339Z,7732
2017-06-24T08:34:15.327Z,8104
2017-06-24T08:35:26.361Z,8076
2017-06-24T08:36:37.345Z,7656
2017-06-24T08:37:48.347Z,7104
2017-06-24T08:38:59.340Z,6776
2017-06-24T08:40:10.331Z,6896
2017-06-24T08:41:21.366Z,7348
2017-06-24T08:42:32.350Z,8096
2017-06-24T08:43:43.352Z,8844
2017-06-24T08:44:54.340Z,9468
2017-06-24T08:46:05.334Z,8800
2017-06-24T08:47:16.388Z,9124
2017-06-24T08:48:27.381Z,9172
2017-06-24T08:49:38.404Z,9556
2017-06-24T08:50:49.605Z,10388
2017-06-24T08:52:00.795Z,11004
2017-06-24T08:53:11.865Z,12328
2017-06-24T08:54:23.063Z,13712
2017-06-24T08:55:34.054Z,14120
2017-06-24T08:56:45.062Z,14024
2017-06-24T08:57:56.249Z,14424
2017-06-24T08:59:07.301Z,12644
2017-06-24T09:00:18.288Z,11976
2017-06-24T09:01:29.282Z,11304
2017-06-24T09:02:40.276Z,11372
2017-06-24T09:03:51.276Z,10060
2017-06-24T09:05:02.317Z,8952
2017-06-24T09:06:13.523Z,8096
2017-06-24T09:07:24.915Z,7456
2017-06-24T09:08:36.115Z,7124
2017-06-24T09:09:47.116Z,7144
2017-06-24T09:10:58.302Z,7104
2017-06-24T09:12:09.503Z,7272
2017-06-24T09:13:20.494Z,7000
2017-06-24T09:14:31.479Z,7376
2017-06-24T09:15:42.719Z,7156
2017-06-24T09:16:53.714Z,7196
2017-06-24T09:18:04.711Z,6752
2017-06-24T09:19:15.699Z,5864
2017-06-24T09:20:26.698Z,5432
2017-06-24T09:21:37.764Z,5216
2017-06-24T09:22:48.749Z,5348
2017-06-24T09:23:59.742Z,5352
2017-06-24T09:25:10.735Z,5168
2017-06-24T09:26:21.735Z,5544
2017-06-24T09:27:32.778Z,5908
2017-06-24T09:28:43.769Z,5884
2017-06-24T09:29:54.961Z,5584
2017-06-24T09:31:05.950Z,5344
2017-06-24T09:32:17.135Z,5188
2017-06-24T09:33:28.176Z,5156
2017-06-24T09:34:39.175Z,5036
2017-06-24T09:35:50.164Z,5144
2017-06-24T09:37:01.153Z,5408
2017-06-24T09:38:12.144Z,5372
2017-06-24T09:39:23.161Z,5268
2017-06-24T09:40:34.162Z,5164
2017-06-24T09:41:45.150Z,5232
2017-06-24T09:42:56.155Z,5248
2017-06-24T09:44:07.193Z,5316
2017-06-24T09:45:18.189Z,5592
2017-06-24T09:46:29.194Z,6124
2017-06-24T09:47:40.184Z,6416
2017-06-24T09:48:51.170Z,6784
2017-06-24T09:50:02.410Z,7524
2017-06-24T09:51:13.410Z,7572
2017-06-24T09:52:24.602Z,6760
2017-06-24T09:53:35.592Z,6388
2017-06-24T09:54:46.580Z,6468
2017-06-24T09:55:57.626Z,6892
2017-06-24T09:57:08.623Z,7388
2017-06-24T09:58:19.613Z,7924
2017-06-24T09:59:30.604Z,8192
2017-06-24T10:00:41.610Z,6948
2017-06-24T10:01:52.684Z,6440
2017-06-24T10:03:03.678Z,6052
2017-06-24T10:04:14.665Z,5924
2017-06-24T10:05:25.661Z,5176
2017-06-24T10:06:36.852Z,5180
2017-06-24T10:07:47.893Z,5148
2017-06-24T10:08:58.888Z,5436
2017-06-24T10:10:09.906Z,5332
2017-06-24T10:11:20.899Z,5184
2017-06-24T10:12:31.896Z,5520
2017-06-24T10:13:42.935Z,5700
2017-06-24T10:14:53.928Z,5672
2017-06-24T10:16:04.916Z,5368
2017-06-24T10:17:16.109Z,5316
2017-06-24T10:18:27.105Z,5056
2017-06-24T10:19:38.158Z,5004
2017-06-24T10:20:49.360Z,5272
2017-06-24T10:22:00.353Z,5656
2017-06-24T10:23:11.354Z,6516
2017-06-24T10:24:22.754Z,6996
2017-06-24T10:25:33.799Z,6668
2017-06-24T10:26:44.790Z,6588
2017-06-24T10:27:55.975Z,6972
2017-06-24T10:29:06.961Z,7220
2017-06-24T10:30:18.163Z,7220
2017-06-24T10:31:29.207Z,6992
2017-06-24T10:32:40.596Z,7448
2017-06-24T10:33:51.990Z,7444
2017-06-24T10:35:02.978Z,7996
2017-06-24T10:36:13.983Z,7824
2017-06-24T10:37:25.018Z,7480
2017-06-24T10:38:36.008Z,8480
2017-06-24T10:39:47.004Z,8684
2017-06-24T10:40:58.000Z,9364
2017-06-24T10:42:08.989Z,9740
2017-06-24T10:43:20.029Z,9464
2017-06-24T10:44:31.218Z,8972
2017-06-24T10:45:42.214Z,7844
2017-06-24T10:46:53.211Z,8248
2017-06-24T10:48:04.197Z,8516
2017-06-24T10:49:15.244Z,7508
2017-06-24T10:50:26.242Z,6880
2017-06-24T10:51:37.437Z,6512
2017-06-24T10:52:48.635Z,6524
2017-06-24T10:53:59.626Z,7492
2017-06-24T10:55:10.668Z,9188
2017-06-24T10:56:21.666Z,10808
2017-06-24T10:57:32.666Z,9436
2017-06-24T10:58:43.648Z,8332
2017-06-24T10:59:54.639Z,8212
2017-06-24T11:01:05.634Z,7880
2017-06-24T11:02:16.627Z,8224
2017-06-24T11:03:27.624Z,9060
2017-06-24T11:04:38.614Z,9684
2017-06-24T11:05:49.657Z,9692
2017-06-24T11:07:00.680Z,9976
2017-06-24T11:08:11.670Z,10340
2017-06-24T11:09:22.667Z,11720
2017-06-24T11:10:33.863Z,13136
2017-06-24T11:11:44.921Z,17152
2017-06-24T11:12:56.119Z,18080
2017-06-24T11:14:07.114Z,13808
2017-06-24T11:15:18.116Z,12200
2017-06-24T11:16:29.112Z,13788
2017-06-24T11:17:40.159Z,12340
2017-06-24T11:18:51.152Z,10688
2017-06-24T11:20:02.148Z,11628
2017-06-24T11:21:13.346Z,14720
2017-06-24T11:22:24.341Z,15232
2017-06-24T11:23:35.400Z,15808
2017-06-24T11:24:46.398Z,16992
2017-06-24T11:25:57.395Z,10504
2017-06-24T11:27:08.391Z,10592
2017-06-24T11:28:19.390Z,10616
2017-06-24T11:29:30.434Z,9956
2017-06-24T11:30:41.425Z,10360
2017-06-24T11:31:52.427Z,7820
2017-06-24T11:33:03.422Z,7668
2017-06-24T11:34:14.417Z,7344
2017-06-24T11:35:25.458Z,6384
2017-06-24T11:36:36.452Z,5452
2017-06-24T11:37:47.444Z,6348
2017-06-24T11:38:58.842Z,6140
2017-06-24T11:40:10.039Z,6468
2017-06-24T11:41:21.084Z,5780
2017-06-24T11:42:32.271Z,5596
2017-06-24T11:43:43.463Z,5748
2017-06-24T11:44:54.656Z,5012
2017-06-24T11:46:05.652Z,5196
2017-06-24T11:47:16.728Z,5492
2017-06-24T11:48:27.924Z,5760
2017-06-24T11:49:38.912Z,6240
2017-06-24T11:50:50.097Z,6216
2017-06-24T11:52:01.085Z,5164
2017-06-24T11:53:12.335Z,5208
2017-06-24T11:54:23.336Z,5464
2017-06-24T11:55:34.323Z,5792
2017-06-24T11:56:45.320Z,5148
2017-06-24T11:57:56.310Z,5604
2017-06-24T11:59:07.554Z,6932
2017-06-24T12:00:18.555Z,6852
2017-06-24T12:01:29.549Z,5844
2017-06-24T12:02:40.533Z,5268
2017-06-24T12:03:51.726Z,5268
2017-06-24T12:05:02.770Z,4028
2017-06-24T12:06:14.168Z,3572
2017-06-24T12:07:25.166Z,3792
2017-06-24T12:08:36.369Z,3780
2017-06-24T12:09:47.366Z,3516
2017-06-24T12:10:58.353Z,3808
2017-06-24T12:12:09.547Z,4180
2017-06-24T12:13:20.536Z,4008
2017-06-24T12:14:31.733Z,3608
2017-06-24T12:15:42.774Z,3120
2017-06-24T12:17:25.385Z,4004
2017-06-24T12:18:36.374Z,3784
2017-06-24T12:19:47.366Z,3668
2017-06-24T12:20:58.405Z,4132
2017-06-24T12:22:09.410Z,4192
2017-06-24T12:23:20.409Z,4260
2017-06-24T12:24:31.404Z,4020
2017-06-24T12:25:42.394Z,3380
2017-06-24T12:26:53.435Z,3600
2017-06-24T12:28:04.426Z,3552
2017-06-24T12:29:15.417Z,3272
2017-06-24T12:30:26.602Z,3744
2017-06-24T12:31:37.591Z,3284
2017-06-24T12:32:48.839Z,3172
2017-06-24T12:33:59.832Z,2928
2017-06-24T12:35:10.816Z,3064
2017-06-24T12:36:21.813Z,3360
2017-06-24T12:37:32.805Z,2872
2017-06-24T12:38:44.052Z,2464
2017-06-24T12:39:55.040Z,2468
2017-06-24T12:41:06.034Z,2572
2017-06-24T12:42:17.023Z,2388
2017-06-24T12:43:28.006Z,2420
2017-06-24T12:44:39.043Z,2460
2017-06-24T12:45:50.027Z,2376
2017-06-24T12:47:01.016Z,2488
2017-06-24T12:48:12.009Z,2788
2017-06-24T12:49:23.202Z,2784
2017-06-24T12:50:34.197Z,2624
2017-06-24T12:51:45.182Z,2848
2017-06-24T12:52:56.176Z,3056
2017-06-24T12:54:07.368Z,2856
2017-06-24T12:55:18.407Z,2760
2017-06-24T12:56:29.398Z,2584
2017-06-24T12:57:40.590Z,2828
2017-06-24T12:58:51.787Z,3240
2017-06-24T13:00:02.982Z,2952
2017-06-24T13:01:14.059Z,2680
2017-06-24T13:02:25.054Z,2980
2017-06-24T13:03:36.049Z,3328
2017-06-24T13:04:47.034Z,3420
2017-06-24T13:05:58.025Z,3464
2017-06-24T13:07:09.420Z,3560
2017-06-24T13:08:20.411Z,3364
2017-06-24T13:09:31.402Z,3300
2017-06-24T13:10:42.596Z,3604
2017-06-24T13:11:53.633Z,3464
2017-06-24T13:13:04.631Z,3556
2017-06-24T13:14:15.615Z,4140
2017-06-24T13:15:26.805Z,4484
2017-06-24T13:16:38.009Z,3768
2017-06-24T13:17:49.054Z,3580
2017-06-24T13:19:00.052Z,3336
2017-06-24T13:20:11.044Z,3196
2017-06-24T13:21:22.030Z,3392
2017-06-24T13:22:33.420Z,3420
2017-06-24T13:23:44.461Z,3332
2017-06-24T13:24:55.460Z,2996
2017-06-24T13:26:06.459Z,2728
2017-06-24T13:27:17.457Z,2556
2017-06-24T13:28:28.458Z,2488
2017-06-24T13:29:39.500Z,2508
2017-06-24T13:30:50.486Z,2572
2017-06-24T13:32:01.488Z,2564
2017-06-24T13:33:12.521Z,2536
2017-06-24T13:34:23.512Z,2408
2017-06-24T13:35:34.555Z,2360
2017-06-24T13:36:45.552Z,2416
2017-06-24T13:37:56.745Z,2388
2017-06-24T13:39:07.741Z,2256
2017-06-24T13:40:18.738Z,2184
2017-06-24T13:41:29.775Z,2224
2017-06-24T13:42:40.766Z,2296
2017-06-24T13:43:51.754Z,2400
2017-06-24T13:45:02.946Z,2448
2017-06-24T13:46:13.941Z,2336
2017-06-24T13:47:24.980Z,2204
2017-06-24T13:48:35.973Z,2220
2017-06-24T13:49:46.962Z,2536
2017-06-24T13:50:57.951Z,2836
2017-06-24T13:52:09.145Z,3068
2017-06-24T13:53:20.183Z,2956
2017-06-24T13:54:31.184Z,2852
2017-06-24T13:55:42.574Z,2892
2017-06-24T13:56:53.764Z,2948
2017-06-24T13:58:04.757Z,2828
2017-06-24T13:59:15.796Z,2704
2017-06-24T14:00:26.788Z,2768
2017-06-24T14:01:37.779Z,2860
2017-06-24T14:02:48.772Z,3000
2017-06-24T14:03:59.754Z,3324
2017-06-24T14:05:10.793Z,3636
2017-06-24T14:06:21.779Z,3692
2017-06-24T14:07:32.771Z,3576
2017-06-24T14:08:43.760Z,3736
2017-06-24T14:09:54.744Z,3956
2017-06-24T14:11:05.738Z,3920
2017-06-24T14:12:16.729Z,3544
2017-06-24T14:13:28.124Z,3548
2017-06-24T14:14:39.314Z,3800
2017-06-24T14:15:50.360Z,4728
2017-06-24T14:17:01.352Z,4836
2017-06-24T14:18:12.399Z,4068
2017-06-24T14:19:23.384Z,4368
2017-06-24T14:20:34.578Z,4972
2017-06-24T14:21:45.626Z,4776
2017-06-24T14:22:56.619Z,4452
2017-06-24T14:24:07.611Z,4440
2017-06-24T14:25:18.603Z,4372
2017-06-24T14:26:29.594Z,4128
2017-06-24T14:27:40.844Z,4604
2017-06-24T14:28:51.834Z,5596
2017-06-24T14:30:02.818Z,5124
2017-06-24T14:31:13.803Z,4748
2017-06-24T14:32:24.796Z,4984
2017-06-24T14:33:35.842Z,5084
2017-06-24T14:34:46.830Z,5128
2017-06-24T14:35:57.806Z,5096
2017-06-24T14:37:08.794Z,5016
2017-06-24T14:38:19.783Z,5880
2017-06-24T14:39:30.822Z,5944
2017-06-24T14:40:41.811Z,5936
2017-06-24T14:41:53.016Z,5236
2017-06-24T14:43:04.203Z,5012
2017-06-24T14:44:15.198Z,5556
2017-06-24T14:45:26.429Z,5000
2017-06-24T14:46:37.430Z,4564
2017-06-24T14:47:48.423Z,4712
2017-06-24T14:48:59.413Z,4636
2017-06-24T14:50:10.405Z,4644
2017-06-24T14:51:21.652Z,4432
2017-06-24T14:52:32.646Z,4516
2017-06-24T14:53:43.843Z,5316
2017-06-24T14:54:54.843Z,5144
2017-06-24T14:56:05.835Z,4764
2017-06-24T14:57:17.081Z,5184
2017-06-24T14:58:28.078Z,4608
2017-06-24T14:59:39.068Z,4736
2017-06-24T15:00:50.060Z,5640
2017-06-24T15:02:01.048Z,5772
2017-06-24T15:03:12.092Z,4956
2017-06-24T15:04:23.089Z,4776
2017-06-24T15:05:34.082Z,4976
2017-06-24T15:06:45.278Z,4364
2017-06-24T15:07:56.273Z,4580
2017-06-24T15:09:07.349Z,5440
2017-06-24T15:10:18.343Z,4792
2017-06-24T15:11:29.341Z,4560
2017-06-24T15:12:40.328Z,6308
2017-06-24T15:13:51.521Z,7852
2017-06-24T15:15:02.557Z,8388
2017-06-24T15:16:13.547Z,7944
2017-06-24T15:17:24.544Z,6980
2017-06-24T15:18:35.538Z,5952
2017-06-24T15:19:46.535Z,5568
2017-06-24T15:20:57.537Z,5168
2017-06-24T15:22:08.544Z,4472
2017-06-24T15:23:19.544Z,3704
2017-06-24T15:24:30.530Z,4036
2017-06-24T15:25:41.576Z,4296
2017-06-24T15:26:52.569Z,4324
2017-06-24T15:28:03.763Z,4196
2017-06-24T15:29:14.954Z,4072
2017-06-24T15:30:25.949Z,4268
2017-06-24T15:31:37.001Z,4500
2017-06-24T15:32:47.993Z,4508
2017-06-24T15:33:59.180Z,4592
2017-06-24T15:35:10.177Z,4332
2017-06-24T15:36:21.175Z,4000
2017-06-24T15:37:32.214Z,4220
2017-06-24T15:38:43.212Z,4412
2017-06-24T15:39:54.408Z,5136
2017-06-24T15:41:05.398Z,5484
2017-06-24T15:42:16.386Z,5512
2017-06-24T15:43:27.436Z,5168
2017-06-24T15:44:38.633Z,4680
2017-06-24T15:45:49.619Z,4768
2017-06-24T15:47:00.599Z,4844
2017-06-24T15:48:11.590Z,4712
2017-06-24T15:49:22.637Z,4524
2017-06-24T15:50:33.820Z,4620
2017-06-24T15:51:44.811Z,4448
2017-06-24T15:52:55.805Z,4376
2017-06-24T15:54:06.818Z,4472
2017-06-24T15:55:17.853Z,4360
2017-06-24T15:56:29.053Z,4112
2017-06-24T15:57:40.045Z,3820
2017-06-24T15:58:51.035Z,4000
2017-06-24T16:00:02.228Z,4164
2017-06-24T16:01:13.271Z,4452
2017-06-24T16:02:24.256Z,4520
2017-06-24T16:03:35.257Z,4516
2017-06-24T16:04:46.242Z,4728
2017-06-24T16:05:57.243Z,4708